createdAt,value
2023-02-06T00:00:47.188Z,88.03
2023-02-06T00:02:51.039Z,88.17
2023-02-06T00:04:54.253Z,87.99
2023-02-06T00:06:58.848Z,88.01
2023-02-06T00:09:02.142Z,88.08
2023-02-06T00:11:07.495Z,88.16
2023-02-06T00:13:10.737Z,88.04
2023-02-06T00:15:13.997Z,87.97
2023-02-06T00:17:17.214Z,88.04
2023-02-06T00:19:20.469Z,88.13
2023-02-06T00:21:25.892Z,88.08
2023-02-06T00:23:30.538Z,88.03
2023-02-06T00:25:34.032Z,87.94
2023-02-06T00:27:37.512Z,88.12
2023-02-06T00:29:40.723Z,88.12
2023-02-06T00:31:44.094Z,88.05
2023-02-06T00:33:47.453Z,88.08
2023-02-06T00:35:50.695Z,88.02
2023-02-06T00:37:53.985Z,88.01
2023-02-06T00:39:58.640Z,88.05
2023-02-06T00:42:01.904Z,88.06
2023-02-06T00:44:05.125Z,88.04
2023-02-06T00:46:08.352Z,88.06
2023-02-06T00:48:16.400Z,88.03
2023-02-06T00:50:19.875Z,87.85
2023-02-06T00:52:23.201Z,87.87
2023-02-06T00:54:26.447Z,87.88
2023-02-06T00:56:31.018Z,88.04
2023-02-06T00:58:34.195Z,87.95
2023-02-06T01:00:37.450Z,87.91
2023-02-06T01:02:40.760Z,87.87
2023-02-06T01:04:43.992Z,87.89
2023-02-06T01:06:47.218Z,87.74
2023-02-06T01:08:50.453Z,87.79
2023-02-06T01:10:53.641Z,87.72
2023-02-06T01:12:58.274Z,87.65
2023-02-06T01:15:02.085Z,87.70
2023-02-06T01:17:06.743Z,87.66
2023-02-06T01:19:10.871Z,87.62
2023-02-06T01:21:15.998Z,87.47
2023-02-06T01:23:19.254Z,87.45
2023-02-06T01:25:22.480Z,87.50
2023-02-06T01:27:25.716Z,87.44
2023-02-06T01:29:30.320Z,87.45
2023-02-06T01:31:33.604Z,87.41
2023-02-06T01:33:36.829Z,87.46
2023-02-06T01:35:40.603Z,87.37
2023-02-06T01:37:43.991Z,87.42
2023-02-06T01:39:47.172Z,87.34
2023-02-06T01:41:51.087Z,87.31
2023-02-06T01:44:26.266Z,87.36
2023-02-06T01:46:31.872Z,87.32
2023-02-06T01:48:38.812Z,87.43
2023-02-06T01:50:45.854Z,87.37
2023-02-06T01:52:49.544Z,87.23
2023-02-06T01:54:58.210Z,87.21
2023-02-06T01:57:06.389Z,87.22
2023-02-06T01:59:09.692Z,87.23
2023-02-06T02:01:13.145Z,87.16
2023-02-06T02:03:17.919Z,87.23
2023-02-06T02:05:21.577Z,87.21
2023-02-06T02:07:27.322Z,87.41
2023-02-06T02:09:31.330Z,87.31
2023-02-06T02:11:36.417Z,87.30
2023-02-06T02:13:40.095Z,87.23
2023-02-06T02:15:53.874Z,87.23
2023-02-06T02:18:07.837Z,87.03
2023-02-06T02:20:56.561Z,87.02
2023-02-06T02:23:09.036Z,87.01
2023-02-06T02:25:49.226Z,86.90
2023-02-06T02:28:12.765Z,86.83
2023-02-06T02:30:43.419Z,86.87
2023-02-06T02:33:28.773Z,86.88
2023-02-06T02:35:51.075Z,87.04
2023-02-06T02:38:04.708Z,86.98
2023-02-06T02:40:16.941Z,86.94
2023-02-06T02:42:26.193Z,86.83
2023-02-06T02:44:36.782Z,86.95
2023-02-06T02:46:43.952Z,87.08
2023-02-06T02:48:50.324Z,86.97
2023-02-06T02:50:57.396Z,86.96
2023-02-06T02:53:02.161Z,87.02
2023-02-06T02:55:16.112Z,86.92
2023-02-06T02:57:26.012Z,86.88
2023-02-06T02:59:37.451Z,86.96
2023-02-06T03:01:43.598Z,87.05
2023-02-06T03:03:50.150Z,87.07
2023-02-06T03:06:15.209Z,87.14
2023-02-06T03:08:27.271Z,87.01
2023-02-06T03:10:40.138Z,86.78
2023-02-06T03:12:50.246Z,87.09
2023-02-06T03:14:59.555Z,87.15
2023-02-06T03:17:10.824Z,87.14
2023-02-06T03:19:16.849Z,87.02
2023-02-06T03:21:22.977Z,87.22
2023-02-06T03:23:30.451Z,87.20
2023-02-06T03:25:37.765Z,87.26
2023-02-06T03:27:43.644Z,87.19
2023-02-06T03:29:51.333Z,87.22
2023-02-06T03:31:58.481Z,87.45
2023-02-06T03:34:08.712Z,87.44
2023-02-06T03:36:17.114Z,87.59
2023-02-06T03:38:24.794Z,87.49
2023-02-06T03:40:29.694Z,87.41
2023-02-06T03:42:37.277Z,87.53
2023-02-06T03:44:46.359Z,87.50
2023-02-06T03:46:51.681Z,87.55
2023-02-06T03:48:59.532Z,87.57
2023-02-06T03:51:06.324Z,87.53
2023-02-06T03:53:12.588Z,87.42
2023-02-06T03:55:21.230Z,87.42
2023-02-06T03:57:26.375Z,87.50
2023-02-06T03:59:30.011Z,87.55
2023-02-06T04:01:33.883Z,87.69
2023-02-06T04:03:37.088Z,87.63
2023-02-06T04:05:40.802Z,87.57
2023-02-06T04:07:44.079Z,87.63
2023-02-06T04:09:47.353Z,87.58
2023-02-06T04:11:51.920Z,87.51
2023-02-06T04:13:55.102Z,87.63
2023-02-06T04:15:58.409Z,87.58
2023-02-06T04:18:02.018Z,87.56
2023-02-06T04:20:08.249Z,87.66
2023-02-06T04:22:15.334Z,87.63
2023-02-06T04:24:19.708Z,87.24
2023-02-06T04:26:22.939Z,87.63
2023-02-06T04:28:27.683Z,87.58
2023-02-06T04:30:30.998Z,87.68
2023-02-06T04:32:34.398Z,87.56
2023-02-06T04:34:38.886Z,87.52
2023-02-06T04:36:42.044Z,87.52
2023-02-06T04:38:45.282Z,87.52
2023-02-06T04:40:48.467Z,87.47
2023-02-06T04:42:51.627Z,87.58
2023-02-06T04:44:55.147Z,87.55
2023-02-06T04:46:58.334Z,87.61
2023-02-06T04:49:01.509Z,87.63
2023-02-06T04:51:05.418Z,87.56
2023-02-06T04:53:08.596Z,87.57
2023-02-06T04:55:11.756Z,87.55
2023-02-06T04:57:17.772Z,87.45
2023-02-06T04:59:20.946Z,87.53
2023-02-06T05:01:25.605Z,87.50
2023-02-06T05:03:29.723Z,87.53
2023-02-06T05:05:33.106Z,87.34
2023-02-06T05:07:36.900Z,87.44
2023-02-06T05:09:40.054Z,87.50
2023-02-06T05:11:43.222Z,87.50
2023-02-06T05:13:46.835Z,87.42
2023-02-06T05:15:50.193Z,87.55
2023-02-06T05:17:55.479Z,87.46
2023-02-06T05:19:58.834Z,87.40
2023-02-06T05:22:01.991Z,87.53
2023-02-06T05:24:05.616Z,87.45
2023-02-06T05:26:08.772Z,87.66
2023-02-06T05:28:11.959Z,87.59
2023-02-06T05:30:15.737Z,87.64
2023-02-06T05:32:19.788Z,87.64
2023-02-06T05:34:24.439Z,87.65
2023-02-06T05:36:29.204Z,87.54
2023-02-06T05:38:32.736Z,87.53
2023-02-06T05:40:35.867Z,87.58
2023-02-06T05:42:39.079Z,87.57
2023-02-06T05:44:42.245Z,87.59
2023-02-06T05:46:48.372Z,87.51
2023-02-06T05:48:51.558Z,87.44
2023-02-06T05:50:56.154Z,87.52
2023-02-06T05:52:59.279Z,87.41
2023-02-06T05:55:02.494Z,87.39
2023-02-06T05:57:05.667Z,87.30
2023-02-06T05:59:08.835Z,87.42
2023-02-06T06:01:12.447Z,87.47
2023-02-06T06:03:15.762Z,87.34
2023-02-06T06:05:19.104Z,87.22
2023-02-06T06:07:23.702Z,87.23
2023-02-06T06:09:26.961Z,87.25
2023-02-06T06:11:30.661Z,87.00
2023-02-06T06:13:33.812Z,87.08
2023-02-06T06:15:37.392Z,87.03
2023-02-06T06:17:40.783Z,86.94
2023-02-06T06:19:44.082Z,86.96
2023-02-06T06:21:47.279Z,86.94
2023-02-06T06:23:51.903Z,87.06
2023-02-06T06:25:55.066Z,86.87
2023-02-06T06:27:58.297Z,86.82
2023-02-06T06:30:01.577Z,86.95
2023-02-06T06:32:05.624Z,86.98
2023-02-06T06:34:08.964Z,86.71
2023-02-06T06:36:14.593Z,86.90
2023-02-06T06:38:17.792Z,86.79
2023-02-06T06:40:22.480Z,86.83
2023-02-06T06:42:25.647Z,86.85
2023-02-06T06:44:28.845Z,86.65
2023-02-06T06:46:32.088Z,86.83
2023-02-06T06:48:37.110Z,86.83
2023-02-06T06:50:40.268Z,86.84
2023-02-06T06:52:43.578Z,86.80
2023-02-06T06:54:46.772Z,86.75
2023-02-06T06:56:51.293Z,86.83
2023-02-06T06:58:55.527Z,86.99
2023-02-06T07:00:58.869Z,86.95
2023-02-06T07:03:02.259Z,87.00
2023-02-06T07:05:06.028Z,86.64
2023-02-06T07:07:09.453Z,86.93
2023-02-06T07:09:12.703Z,86.85
2023-02-06T07:11:17.006Z,86.91
2023-02-06T07:13:21.668Z,86.82
2023-02-06T07:15:24.950Z,86.87
2023-02-06T07:17:28.302Z,86.98
2023-02-06T07:19:31.529Z,87.04
2023-02-06T07:21:34.943Z,87.12
2023-02-06T07:23:38.832Z,87.07
2023-02-06T07:25:41.955Z,87.06
2023-02-06T07:27:45.141Z,87.11
2023-02-06T07:29:49.812Z,87.07
2023-02-06T07:31:52.972Z,87.13
2023-02-06T07:33:56.303Z,87.29
2023-02-06T07:36:02.091Z,87.10
2023-02-06T07:38:06.532Z,87.23
2023-02-06T07:40:10.859Z,87.07
2023-02-06T07:42:14.129Z,87.19
2023-02-06T07:44:28.381Z,86.97
2023-02-06T07:46:33.312Z,87.18
2023-02-06T07:48:36.700Z,86.99
2023-02-06T07:50:40.000Z,87.06
2023-02-06T07:52:43.195Z,87.05
2023-02-06T07:54:46.486Z,86.99
2023-02-06T07:56:49.764Z,86.99
2023-02-06T07:58:54.110Z,86.94
2023-02-06T08:00:59.732Z,87.13
2023-02-06T08:03:05.091Z,86.94
2023-02-06T08:05:09.306Z,86.92
2023-02-06T08:07:15.149Z,87.07
2023-02-06T08:09:18.584Z,87.05
2023-02-06T08:11:26.220Z,86.89
2023-02-06T08:13:29.606Z,86.87
2023-02-06T08:15:33.469Z,86.80
2023-02-06T08:17:36.909Z,86.86
2023-02-06T08:19:42.038Z,87.04
2023-02-06T08:21:45.812Z,86.91
2023-02-06T08:23:49.557Z,86.92
2023-02-06T08:25:52.960Z,86.90
2023-02-06T08:27:57.182Z,86.84
2023-02-06T08:30:01.532Z,86.86
2023-02-06T08:32:05.234Z,86.70
2023-02-06T08:34:11.431Z,86.67
2023-02-06T08:36:17.675Z,86.56
2023-02-06T08:38:20.891Z,86.51
2023-02-06T08:40:24.155Z,86.23
2023-02-06T08:42:27.415Z,86.23
2023-02-06T08:44:30.632Z,86.09
2023-02-06T08:46:34.820Z,86.08
2023-02-06T08:48:38.551Z,86.09
2023-02-06T08:50:41.804Z,85.79
2023-02-06T08:52:46.504Z,85.85
2023-02-06T08:54:51.682Z,85.71
2023-02-06T08:56:56.784Z,85.59
2023-02-06T08:59:00.735Z,85.71
2023-02-06T09:01:07.703Z,85.63
2023-02-06T09:03:10.979Z,85.75
2023-02-06T09:05:15.383Z,85.62
2023-02-06T09:07:18.553Z,85.51
2023-02-06T09:09:23.295Z,85.27
2023-02-06T09:11:28.085Z,85.31
2023-02-06T09:13:32.214Z,85.09
2023-02-06T09:15:36.187Z,85.33
2023-02-06T09:17:39.831Z,85.18
2023-02-06T09:19:43.380Z,85.03
2023-02-06T09:21:46.784Z,84.91
2023-02-06T09:23:52.361Z,84.96
2023-02-06T09:25:56.930Z,85.00
2023-02-06T09:28:00.597Z,84.85
2023-02-06T09:30:04.743Z,84.88
2023-02-06T09:32:08.380Z,84.87
2023-02-06T09:34:14.007Z,84.78
2023-02-06T09:36:19.318Z,84.91
2023-02-06T09:38:22.512Z,84.83
2023-02-06T09:40:29.681Z,84.77
2023-02-06T09:42:39.478Z,84.71
2023-02-06T09:44:49.068Z,84.76
2023-02-06T09:46:55.906Z,84.70
2023-02-06T09:49:01.595Z,84.56
2023-02-06T09:51:11.168Z,84.67
2023-02-06T09:53:22.936Z,84.80
2023-02-06T09:55:34.628Z,84.75
2023-02-06T09:57:47.222Z,84.57
2023-02-06T09:59:55.555Z,84.70
2023-02-06T10:02:15.143Z,84.55
2023-02-06T10:04:39.100Z,84.48
2023-02-06T10:06:50.670Z,84.32
2023-02-06T10:08:58.629Z,83.95
2023-02-06T10:11:04.681Z,83.81
2023-02-06T10:13:15.877Z,83.78
2023-02-06T10:15:26.973Z,83.64
2023-02-06T10:17:35.034Z,83.43
2023-02-06T10:19:44.219Z,83.12
2023-02-06T10:21:52.972Z,82.92
2023-02-06T10:24:02.285Z,82.91
2023-02-06T10:26:12.382Z,82.99
2023-02-06T10:28:24.215Z,82.72
2023-02-06T10:30:38.914Z,82.49
2023-02-06T10:32:49.785Z,82.06
2023-02-06T10:35:08.312Z,81.99
2023-02-06T10:37:35.734Z,81.89
2023-02-06T10:39:56.044Z,81.80
2023-02-06T10:42:07.010Z,81.82
2023-02-06T10:44:24.143Z,81.91
2023-02-06T10:46:38.025Z,81.65
2023-02-06T10:48:45.387Z,81.65
2023-02-06T10:50:53.361Z,81.90
2023-02-06T10:52:58.681Z,81.42
2023-02-06T10:55:13.243Z,81.57
2023-02-06T10:57:20.499Z,81.50
2023-02-06T10:59:29.498Z,81.32
2023-02-06T11:01:37.029Z,81.25
2023-02-06T11:03:46.305Z,81.10
2023-02-06T11:05:50.124Z,80.86
2023-02-06T11:07:55.718Z,80.90
2023-02-06T11:09:59.510Z,81.17
2023-02-06T11:12:04.461Z,80.89
2023-02-06T11:14:14.666Z,80.68
2023-02-06T11:16:25.593Z,80.62
2023-02-06T11:18:32.423Z,80.83
2023-02-06T11:20:38.164Z,80.74
2023-02-06T11:22:52.378Z,80.56
2023-02-06T11:25:01.732Z,80.58
2023-02-06T11:27:15.807Z,80.59
2023-02-06T11:29:21.849Z,80.68
2023-02-06T11:31:44.532Z,80.66
2023-02-06T11:33:51.553Z,80.69
2023-02-06T11:35:59.147Z,80.59
2023-02-06T11:38:17.307Z,80.51
2023-02-06T11:40:26.931Z,80.52
2023-02-06T11:42:30.052Z,80.84
2023-02-06T11:44:39.468Z,80.75
2023-02-06T11:46:44.025Z,80.52
2023-02-06T11:48:48.720Z,80.41
2023-02-06T11:50:55.796Z,80.41
2023-02-06T11:53:01.745Z,80.15
2023-02-06T11:55:04.913Z,80.21
2023-02-06T11:57:21.821Z,80.27
2023-02-06T11:59:27.106Z,79.99
2023-02-06T12:01:38.226Z,79.96
2023-02-06T12:03:54.776Z,80.09
2023-02-06T12:06:03.195Z,80.41
2023-02-06T12:08:14.048Z,80.31
2023-02-06T12:10:19.263Z,80.52
2023-02-06T12:12:29.592Z,80.14
2023-02-06T12:14:38.279Z,80.07
2023-02-06T12:16:45.597Z,79.58
2023-02-06T12:18:54.955Z,79.44
2023-02-06T12:21:04.647Z,79.61
2023-02-06T12:23:16.954Z,79.43
2023-02-06T12:25:27.588Z,79.44
2023-02-06T12:27:37.240Z,79.19
2023-02-06T12:29:45.574Z,79.08
2023-02-06T12:31:54.223Z,79.04
2023-02-06T12:34:10.570Z,78.57
2023-02-06T12:36:17.329Z,78.31
2023-02-06T12:38:38.523Z,78.20
2023-02-06T12:40:47.213Z,78.12
2023-02-06T12:42:57.655Z,77.91
2023-02-06T12:45:05.319Z,77.98
2023-02-06T12:47:18.398Z,77.84
2023-02-06T12:49:27.498Z,77.40
2023-02-06T12:51:36.226Z,77.46
2023-02-06T12:53:44.503Z,77.36
2023-02-06T12:55:54.044Z,76.93
2023-02-06T12:57:58.695Z,76.91
2023-02-06T13:00:31.282Z,76.32
2023-02-06T13:03:21.554Z,76.37
2023-02-06T13:05:33.557Z,76.63
2023-02-06T13:07:49.223Z,76.61
2023-02-06T13:09:54.820Z,76.71
2023-02-06T13:12:09.214Z,76.75
2023-02-06T13:14:21.406Z,76.64
2023-02-06T13:16:38.945Z,76.72
2023-02-06T13:19:03.332Z,76.33
2023-02-06T13:21:17.430Z,76.14
2023-02-06T13:23:24.466Z,76.16
2023-02-06T13:25:54.553Z,75.49
2023-02-06T13:27:59.391Z,74.96
2023-02-06T13:30:42.551Z,74.08
2023-02-06T13:32:50.289Z,72.87
2023-02-06T13:35:00.561Z,72.27
2023-02-06T13:37:33.520Z,71.97
2023-02-06T13:39:36.701Z,71.63
2023-02-06T13:41:42.281Z,71.46
2023-02-06T13:43:48.955Z,70.71
2023-02-06T13:45:57.693Z,70.36
2023-02-06T13:48:33.483Z,70.25
2023-02-06T13:50:55.068Z,70.48
2023-02-06T13:53:16.413Z,70.64
2023-02-06T13:55:40.630Z,70.67
2023-02-06T13:57:58.359Z,70.76
2023-02-06T14:00:05.754Z,70.76
2023-02-06T14:02:14.518Z,71.05
2023-02-06T14:04:24.963Z,70.85
2023-02-06T14:06:43.284Z,70.93
2023-02-06T14:09:00.493Z,71.35
2023-02-06T14:11:40.643Z,71.29
2023-02-06T14:14:05.660Z,71.54
2023-02-06T14:16:25.633Z,72.06
2023-02-06T14:18:43.393Z,71.43
2023-02-06T14:20:55.174Z,71.17
2023-02-06T14:23:11.372Z,70.85
2023-02-06T14:25:40.287Z,70.46
2023-02-06T14:27:54.955Z,70.22
2023-02-06T14:30:07.694Z,70.07
2023-02-06T14:32:26.444Z,69.66
2023-02-06T14:34:42.758Z,69.20
2023-02-06T14:36:59.614Z,68.82
2023-02-06T14:39:52.483Z,68.32
2023-02-06T14:41:57.929Z,67.97
2023-02-06T14:44:01.421Z,68.02
2023-02-06T14:46:09.046Z,67.92
2023-02-06T14:48:21.764Z,67.50
2023-02-06T14:50:27.940Z,67.22
2023-02-06T14:52:33.448Z,66.88
2023-02-06T14:54:38.839Z,66.55
2023-02-06T14:56:42.052Z,66.34
2023-02-06T14:58:47.272Z,66.70
2023-02-06T15:00:50.501Z,66.74
2023-02-06T15:03:05.144Z,67.04
2023-02-06T15:05:08.577Z,67.43
2023-02-06T15:07:23.426Z,67.74
2023-02-06T15:09:29.048Z,68.27
2023-02-06T15:11:33.785Z,68.72
2023-02-06T15:13:37.720Z,68.98
2023-02-06T15:15:54.315Z,69.10
2023-02-06T15:18:02.141Z,69.44
2023-02-06T15:20:25.294Z,70.14
2023-02-06T15:22:31.356Z,69.97
2023-02-06T15:24:52.535Z,70.41
2023-02-06T15:27:03.658Z,70.41
2023-02-06T15:29:16.850Z,70.68
2023-02-06T15:31:22.886Z,70.59
2023-02-06T15:33:29.045Z,70.50
2023-02-06T15:35:36.078Z,70.75
2023-02-06T15:37:39.178Z,70.94
2023-02-06T15:39:43.104Z,70.96
2023-02-06T15:41:49.470Z,71.20
2023-02-06T15:43:57.500Z,71.24
2023-02-06T15:46:03.267Z,71.43
2023-02-06T15:48:13.138Z,71.68
2023-02-06T15:50:19.612Z,71.79
2023-02-06T15:52:39.534Z,72.14
2023-02-06T15:54:45.054Z,72.31
2023-02-06T15:56:51.253Z,72.63
2023-02-06T15:59:00.779Z,72.77
2023-02-06T16:01:05.865Z,73.03
2023-02-06T16:03:19.851Z,73.23
2023-02-06T16:05:27.996Z,73.27
2023-02-06T16:07:35.687Z,73.56
2023-02-06T16:09:43.082Z,73.68
2023-02-06T16:11:50.898Z,74.02
2023-02-06T16:13:54.265Z,74.23
2023-02-06T16:16:22.341Z,74.54
2023-02-06T16:18:31.687Z,74.65
2023-02-06T16:20:39.784Z,74.74
2023-02-06T16:22:43.312Z,74.88
2023-02-06T16:24:46.912Z,75.11
2023-02-06T16:26:52.317Z,75.38
2023-02-06T16:28:58.768Z,75.55
2023-02-06T16:31:05.156Z,75.59
2023-02-06T16:33:31.201Z,75.75
2023-02-06T16:35:34.492Z,76.02
2023-02-06T16:37:37.739Z,76.21
2023-02-06T16:39:43.017Z,76.25
2023-02-06T16:41:50.928Z,76.60
2023-02-06T16:43:55.300Z,76.69
2023-02-06T16:46:00.475Z,76.87
2023-02-06T16:48:03.835Z,76.96
2023-02-06T16:50:10.530Z,77.22
2023-02-06T16:52:20.447Z,77.36
2023-02-06T16:54:26.774Z,77.44
2023-02-06T16:56:30.184Z,77.66
2023-02-06T16:58:35.032Z,77.92
2023-02-06T17:00:39.252Z,77.99
2023-02-06T17:02:42.625Z,78.25
2023-02-06T17:04:45.980Z,78.27
2023-02-06T17:06:50.688Z,78.47
2023-02-06T17:08:57.149Z,78.42
2023-02-06T17:11:00.415Z,78.63
2023-02-06T17:13:03.859Z,78.80
2023-02-06T17:15:08.056Z,78.90
2023-02-06T17:17:13.489Z,78.94
2023-02-06T17:19:16.862Z,79.14
2023-02-06T17:21:22.934Z,79.16
2023-02-06T17:23:27.733Z,79.27
2023-02-06T17:25:31.545Z,79.43
2023-02-06T17:27:34.944Z,79.29
2023-02-06T17:29:38.234Z,79.55
2023-02-06T17:31:41.613Z,79.81
2023-02-06T17:33:45.078Z,79.77
2023-02-06T17:35:49.672Z,80.04
2023-02-06T17:37:53.182Z,79.85
2023-02-06T17:39:57.872Z,80.24
2023-02-06T17:42:01.473Z,80.23
2023-02-06T17:44:05.006Z,80.46
2023-02-06T17:46:08.506Z,80.42
2023-02-06T17:48:12.016Z,80.54
2023-02-06T17:50:17.841Z,80.54
2023-02-06T17:52:21.351Z,80.74
2023-02-06T17:54:25.178Z,80.75
2023-02-06T17:56:30.646Z,80.95
2023-02-06T17:58:33.980Z,80.94
2023-02-06T18:00:37.710Z,81.01
2023-02-06T18:02:41.179Z,81.11
2023-02-06T18:04:44.752Z,81.17
2023-02-06T18:06:48.264Z,81.21
2023-02-06T18:08:51.692Z,81.48
2023-02-06T18:10:55.491Z,81.58
2023-02-06T18:13:00.326Z,81.62
2023-02-06T18:15:04.115Z,81.65
2023-02-06T18:17:08.175Z,81.64
2023-02-06T18:19:11.806Z,81.83
2023-02-06T18:21:16.129Z,82.03
2023-02-06T18:23:19.557Z,82.02
2023-02-06T18:25:23.778Z,82.23
2023-02-06T18:27:26.990Z,82.22
2023-02-06T18:29:43.778Z,82.39
2023-02-06T18:31:52.127Z,82.45
2023-02-06T18:33:57.133Z,82.29
2023-02-06T18:36:04.873Z,82.43
2023-02-06T18:38:09.906Z,82.52
2023-02-06T18:40:13.834Z,82.58
2023-02-06T18:42:35.003Z,82.57
2023-02-06T18:44:42.741Z,82.66
2023-02-06T18:46:46.076Z,82.74
2023-02-06T18:48:49.451Z,82.85
2023-02-06T18:50:54.433Z,82.79
2023-02-06T18:52:58.387Z,82.97
2023-02-06T18:55:01.728Z,83.13
2023-02-06T18:57:05.167Z,82.96
2023-02-06T18:59:08.549Z,83.02
2023-02-06T19:01:14.969Z,83.15
2023-02-06T19:03:18.336Z,83.16
2023-02-06T19:05:22.060Z,83.25
2023-02-06T19:07:25.396Z,83.24
2023-02-06T19:09:28.761Z,83.21
2023-02-06T19:11:32.027Z,83.44
2023-02-06T19:13:35.345Z,83.35
2023-02-06T19:15:38.678Z,83.51
2023-02-06T19:17:43.472Z,83.57
2023-02-06T19:19:46.755Z,83.70
2023-02-06T19:21:50.093Z,83.60
2023-02-06T19:23:57.541Z,83.69
2023-02-06T19:26:01.072Z,83.55
2023-02-06T19:28:04.726Z,83.65
2023-02-06T19:30:09.333Z,83.72
2023-02-06T19:32:12.674Z,83.84
2023-02-06T19:34:17.788Z,83.88
2023-02-06T19:36:22.013Z,83.99
2023-02-06T19:38:25.764Z,84.00
2023-02-06T19:40:29.103Z,84.04
2023-02-06T19:42:32.416Z,84.11
2023-02-06T19:44:36.116Z,84.07
2023-02-06T19:46:39.705Z,84.20
2023-02-06T19:48:45.601Z,84.39
2023-02-06T19:50:50.710Z,84.22
2023-02-06T19:52:54.057Z,84.40
2023-02-06T19:54:57.443Z,84.45
2023-02-06T19:57:01.740Z,84.44
2023-02-06T19:59:07.204Z,84.61
2023-02-06T20:01:11.947Z,84.62
2023-02-06T20:03:15.521Z,84.61
2023-02-06T20:05:20.260Z,84.63
2023-02-06T20:07:25.141Z,84.65
2023-02-06T20:09:29.531Z,84.72
2023-02-06T20:11:34.096Z,84.74
2023-02-06T20:13:38.588Z,84.77
2023-02-06T20:15:41.950Z,84.49
2023-02-06T20:17:45.220Z,84.74
2023-02-06T20:19:48.437Z,84.86
2023-02-06T20:21:55.537Z,84.88
2023-02-06T20:24:02.959Z,84.87
2023-02-06T20:26:06.624Z,84.90
2023-02-06T20:28:09.917Z,84.93
2023-02-06T20:30:14.145Z,84.96
2023-02-06T20:32:19.496Z,84.98
2023-02-06T20:34:23.128Z,84.95
2023-02-06T20:36:27.996Z,84.98
2023-02-06T20:38:31.209Z,84.94
2023-02-06T20:40:36.832Z,84.79
2023-02-06T20:42:44.508Z,84.91
2023-02-06T20:44:47.800Z,84.99
2023-02-06T20:46:51.037Z,84.90
2023-02-06T20:48:56.319Z,85.16
2023-02-06T20:51:00.642Z,85.01
2023-02-06T20:53:03.856Z,85.09
2023-02-06T20:55:07.678Z,85.10
2023-02-06T20:57:12.314Z,85.27
2023-02-06T20:59:16.991Z,85.19
2023-02-06T21:01:23.054Z,85.28
2023-02-06T21:03:26.793Z,85.34
2023-02-06T21:05:30.178Z,85.31
2023-02-06T21:07:33.459Z,85.37
2023-02-06T21:09:37.106Z,85.25
2023-02-06T21:11:42.636Z,85.19
2023-02-06T21:13:47.219Z,85.20
2023-02-06T21:15:52.635Z,85.08
2023-02-06T21:17:56.038Z,85.46
2023-02-06T21:19:59.243Z,85.49
2023-02-06T21:22:02.696Z,85.51
2023-02-06T21:24:06.754Z,85.50
2023-02-06T21:26:12.063Z,85.65
2023-02-06T21:28:15.363Z,85.66
2023-02-06T21:30:20.175Z,85.68
2023-02-06T21:32:23.494Z,85.73
2023-02-06T21:34:26.911Z,85.74
2023-02-06T21:36:30.830Z,85.87
2023-02-06T21:38:34.590Z,85.99
2023-02-06T21:40:38.549Z,85.91
2023-02-06T21:42:41.865Z,86.06
2023-02-06T21:44:45.295Z,85.98
2023-02-06T21:46:50.081Z,86.15
2023-02-06T21:48:54.292Z,86.11
2023-02-06T21:50:57.892Z,85.95
2023-02-06T21:53:01.199Z,86.12
2023-02-06T21:55:07.545Z,86.09
2023-02-06T21:57:10.825Z,86.14
2023-02-06T21:59:14.096Z,86.36
2023-02-06T22:01:18.996Z,86.36
2023-02-06T22:03:24.236Z,86.28
2023-02-06T22:05:28.641Z,86.37
2023-02-06T22:07:31.830Z,86.26
2023-02-06T22:09:35.079Z,86.26
2023-02-06T22:11:40.374Z,86.24
2023-02-06T22:13:44.237Z,86.35
2023-02-06T22:15:51.379Z,86.28
2023-02-06T22:17:54.642Z,86.09
2023-02-06T22:19:59.343Z,86.29
2023-02-06T22:22:02.573Z,86.23
2023-02-06T22:24:07.901Z,86.18
2023-02-06T22:26:14.069Z,86.18
2023-02-06T22:28:17.311Z,86.18
2023-02-06T22:30:20.822Z,86.15
2023-02-06T22:32:24.033Z,86.05
2023-02-06T22:34:27.252Z,86.18
2023-02-06T22:36:33.974Z,86.01
2023-02-06T22:38:37.693Z,86.08
2023-02-06T22:40:41.149Z,86.12
2023-02-06T22:42:44.427Z,86.14
2023-02-06T22:44:47.919Z,86.09
2023-02-06T22:46:53.702Z,86.02
2023-02-06T22:48:57.960Z,85.95
2023-02-06T22:51:06.200Z,85.92
2023-02-06T22:53:29.169Z,85.99
2023-02-06T22:55:52.899Z,85.98
2023-02-06T22:57:56.093Z,86.04
2023-02-06T22:59:59.331Z,85.89
2023-02-06T23:02:02.669Z,86.00
2023-02-06T23:04:07.822Z,86.09
2023-02-06T23:06:13.513Z,85.99
2023-02-06T23:08:19.266Z,86.01
2023-02-06T23:10:22.526Z,85.91
2023-02-06T23:12:25.751Z,85.88
2023-02-06T23:14:30.679Z,85.83
2023-02-06T23:16:35.021Z,85.75
2023-02-06T23:18:38.345Z,85.96
2023-02-06T23:20:41.680Z,85.92
2023-02-06T23:22:44.880Z,85.92
2023-02-06T23:24:51.211Z,85.81
2023-02-06T23:26:54.615Z,85.90
2023-02-06T23:28:58.310Z,85.93
2023-02-06T23:31:01.572Z,86.03
2023-02-06T23:33:05.348Z,85.89
2023-02-06T23:35:09.239Z,85.97
2023-02-06T23:37:12.460Z,86.00
2023-02-06T23:39:16.026Z,86.02
2023-02-06T23:41:22.333Z,85.93
2023-02-06T23:43:25.503Z,86.04
2023-02-06T23:45:29.619Z,86.15
2023-02-06T23:47:32.768Z,85.99
2023-02-06T23:49:36.149Z,86.13
2023-02-06T23:51:39.465Z,86.05
2023-02-06T23:53:42.837Z,86.05
2023-02-06T23:55:46.124Z,86.12
2023-02-06T23:57:50.720Z,86.10
2023-02-06T23:59:53.972Z,86.16
